Time;durP1;ratioP1;P1;durP2;ratioP2;P2;SDS_P1;SDS_P2;PMS_P1;PMS_P2;Temp;Humidity;BMP_temperature;BMP_pressure;BME280_temperature;BME280_humidity;BME280_pressure;Samples;Min_cycle;Max_cycle;Signal;HPM_P1;HPM_P2
2021/11/14 00:01:20;;;;;;;9.80;8.87;;;8.10;99.90;;;;;;5033509;28;20742;-72
2021/11/14 00:03:47;;;;;;;10.70;8.48;;;8.40;99.90;;;;;;5033442;28;20231;-70
2021/11/14 00:06:12;;;;;;;9.07;8.27;;;8.20;99.90;;;;;;5033848;28;20199;-70
2021/11/14 00:08:38;;;;;;;9.63;8.70;;;8.00;99.90;;;;;;5032153;28;20664;-70
2021/11/14 00:11:13;;;;;;;11.55;9.00;;;8.10;99.90;;;;;;5029876;28;20244;-70
2021/11/14 00:13:40;;;;;;;10.90;9.82;;;8.10;99.90;;;;;;5033376;28;20280;-70
2021/11/14 00:16:07;;;;;;;11.98;10.25;;;8.00;99.90;;;;;;5033505;28;20594;-70
2021/11/14 00:18:34;;;;;;;13.05;11.65;;;8.20;99.90;;;;;;5033293;28;20585;-72
2021/11/14 00:20:59;;;;;;;15.73;13.48;;;8.40;99.90;;;;;;5032822;28;20341;-69
2021/11/14 00:23:25;;;;;;;24.67;19.50;;;8.00;99.90;;;;;;5032779;28;20349;-69
2021/11/14 00:25:51;;;;;;;29.43;24.03;;;8.20;99.90;;;;;;5033366;28;20511;-72
2021/11/14 00:28:17;;;;;;;38.67;27.57;;;8.20;99.90;;;;;;5033522;28;20274;-70
2021/11/14 00:30:43;;;;;;;40.45;27.85;;;8.00;99.90;;;;;;5032745;28;20446;-71
2021/11/14 00:33:11;;;;;;;38.38;26.73;;;8.20;99.90;;;;;;5033189;28;20187;-71
2021/11/14 00:35:38;;;;;;;36.80;26.60;;;8.10;99.90;;;;;;5032572;28;20278;-72
2021/11/14 00:38:04;;;;;;;38.05;26.65;;;8.20;99.90;;;;;;5032425;28;20183;-70
2021/11/14 00:40:32;;;;;;;30.97;22.37;;;8.30;99.90;;;;;;5031339;28;20557;-71
2021/11/14 00:43:00;;;;;;;28.95;20.80;;;8.20;99.90;;;;;;5032960;28;20194;-71
2021/11/14 00:45:29;;;;;;;28.50;21.13;;;8.00;99.90;;;;;;5032488;28;20285;-71
2021/11/14 00:47:55;;;;;;;30.25;20.80;;;8.30;99.90;;;;;;5032029;28;20202;-71
2021/11/14 00:50:22;;;;;;;31.97;21.40;;;8.10;99.90;;;;;;5032005;28;20190;-70
2021/11/14 00:52:47;;;;;;;24.13;19.15;;;8.20;99.90;;;;;;5031915;28;20358;-70
2021/11/14 00:55:16;;;;;;;24.87;17.97;;;8.20;99.90;;;;;;5032272;28;20207;-69
2021/11/14 00:57:42;;;;;;;21.02;18.20;;;8.50;99.90;;;;;;5032237;28;20191;-69
2021/11/14 01:00:16;;;;;;;25.57;19.80;;;8.40;99.90;;;;;;5029229;28;20194;-71
2021/11/14 01:02:42;;;;;;;26.60;18.95;;;8.30;99.90;;;;;;5031154;28;20711;-70
2021/11/14 01:05:11;;;;;;;24.37;16.47;;;8.40;99.90;;;;;;5031916;28;20242;-71
2021/11/14 01:07:37;;;;;;;18.85;13.02;;;8.10;99.90;;;;;;5032543;28;20769;-71
2021/11/14 01:10:05;;;;;;;15.90;13.13;;;8.50;99.90;;;;;;5031764;28;20337;-72
2021/11/14 01:12:31;;;;;;;15.23;13.57;;;8.40;99.90;;;;;;5029878;28;20919;-70
2021/11/14 01:14:56;;;;;;;15.60;12.77;;;8.20;99.90;;;;;;5032465;28;20274;-71
2021/11/14 01:17:22;;;;;;;15.37;12.67;;;8.40;99.90;;;;;;5032163;28;20183;-70
2021/11/14 01:19:47;;;;;;;18.63;13.87;;;8.30;99.90;;;;;;5032514;28;20633;-70
2021/11/14 01:22:15;;;;;;;20.33;15.93;;;8.20;99.90;;;;;;5030755;28;20228;-69
2021/11/14 01:24:41;;;;;;;16.00;13.45;;;8.40;99.90;;;;;;5031821;28;20294;-69
2021/11/14 01:27:07;;;;;;;18.33;15.02;;;8.10;99.90;;;;;;5030890;28;20195;-70
2021/11/14 01:29:33;;;;;;;17.20;13.47;;;8.10;99.90;;;;;;5031969;28;20197;-70
2021/11/14 01:31:58;;;;;;;21.43;16.50;;;8.10;99.90;;;;;;5031791;28;20199;-70
2021/11/14 01:34:24;;;;;;;15.20;13.63;;;8.20;99.90;;;;;;5031636;28;20187;-71
2021/11/14 01:36:50;;;;;;;19.33;15.93;;;8.20;99.90;;;;;;5031726;28;20194;-70
2021/11/14 01:39:15;;;;;;;15.50;13.53;;;8.30;99.90;;;;;;5031485;28;20956;-69
2021/11/14 01:41:41;;;;;;;19.00;14.40;;;8.20;99.90;;;;;;5031386;28;20226;-72
2021/11/14 01:44:08;;;;;;;15.77;13.07;;;8.30;99.90;;;;;;5031541;28;20994;-70
2021/11/14 01:46:34;;;;;;;19.63;14.85;;;8.10;99.90;;;;;;5031570;28;20202;-71
2021/11/14 01:49:00;;;;;;;17.10;14.75;;;8.30;99.90;;;;;;5031356;28;20566;-70
2021/11/14 01:51:26;;;;;;;19.17;16.00;;;8.30;99.90;;;;;;5031669;28;20281;-72
2021/11/14 01:53:52;;;;;;;18.53;16.43;;;8.30;99.90;;;;;;5031020;28;20187;-72
2021/11/14 01:56:18;;;;;;;17.70;15.27;;;8.30;99.90;;;;;;5031288;28;20210;-73
2021/11/14 01:58:45;;;;;;;23.70;17.60;;;8.20;99.90;;;;;;5031471;28;20438;-70
2021/11/14 02:01:13;;;;;;;20.77;16.27;;;8.30;99.90;;;;;;5031287;28;20188;-73
2021/11/14 02:03:43;;;;;;;17.80;15.75;;;8.10;99.90;;;;;;5031205;28;20231;-72
2021/11/14 02:06:10;;;;;;;14.77;11.30;;;8.30;99.90;;;;;;5031193;28;20191;-72
2021/11/14 02:08:37;;;;;;;11.35;9.80;;;8.30;99.90;;;;;;5031213;28;20337;-72
2021/11/14 02:11:04;;;;;;;10.77;9.20;;;8.20;99.90;;;;;;5030719;28;20276;-72
2021/11/14 02:13:30;;;;;;;10.70;9.68;;;8.30;99.90;;;;;;5031675;28;20788;-71
2021/11/14 02:15:57;;;;;;;10.23;8.60;;;8.10;99.90;;;;;;5029369;28;20187;-70
2021/11/14 02:18:23;;;;;;;9.80;8.52;;;8.20;99.90;;;;;;5030687;28;20937;-71
2021/11/14 02:20:50;;;;;;;11.30;8.93;;;8.40;99.90;;;;;;5030215;28;20206;-72
2021/11/14 02:23:18;;;;;;;9.98;8.90;;;8.00;99.90;;;;;;5030930;28;20198;-74
2021/11/14 02:25:46;;;;;;;10.10;9.10;;;8.30;99.90;;;;;;5031361;28;20230;-73
2021/11/14 02:28:13;;;;;;;10.63;8.80;;;8.20;99.90;;;;;;5030758;28;20278;-71
2021/11/14 02:30:38;;;;;;;9.98;8.90;;;8.10;99.90;;;;;;5031139;28;20237;-70
2021/11/14 02:33:04;;;;;;;10.30;8.67;;;8.20;99.90;;;;;;5030718;28;20653;-72
2021/11/14 02:35:30;;;;;;;9.60;8.60;;;8.30;99.90;;;;;;5031885;28;20921;-73
2021/11/14 02:37:56;;;;;;;9.77;8.77;;;8.10;99.90;;;;;;5030324;28;20438;-72
2021/11/14 02:40:23;;;;;;;10.43;9.20;;;8.20;99.90;;;;;;5031066;28;20438;-72
2021/11/14 02:42:50;;;;;;;9.57;8.65;;;8.30;99.90;;;;;;5031137;28;20233;-71
2021/11/14 02:45:19;;;;;;;10.68;9.05;;;8.20;99.90;;;;;;5031513;28;20267;-70
2021/11/14 02:47:46;;;;;;;10.50;9.35;;;8.20;99.90;;;;;;5030926;28;20523;-72
2021/11/14 02:50:12;;;;;;;10.82;8.57;;;8.20;99.90;;;;;;5031311;28;20674;-71
2021/11/14 02:52:37;;;;;;;13.63;9.38;;;8.30;99.90;;;;;;5029735;28;20215;-70
2021/11/14 02:55:06;;;;;;;13.47;10.70;;;8.20;99.90;;;;;;5031242;28;20226;-70
2021/11/14 02:57:32;;;;;;;10.85;9.20;;;8.10;99.90;;;;;;5030785;28;20195;-70
2021/11/14 02:59:58;;;;;;;10.87;9.77;;;8.10;99.90;;;;;;5031149;28;20202;-70
2021/11/14 03:02:23;;;;;;;11.80;9.90;;;8.10;99.90;;;;;;5030751;28;20457;-72
2021/11/14 03:04:49;;;;;;;12.40;10.10;;;8.40;99.90;;;;;;5030805;28;20532;-71
2021/11/14 03:07:16;;;;;;;12.43;10.88;;;8.20;99.90;;;;;;5030099;28;20438;-71
2021/11/14 03:09:42;;;;;;;12.60;11.27;;;8.20;99.90;;;;;;5030524;28;20630;-70
2021/11/14 03:12:08;;;;;;;14.63;10.68;;;8.30;99.90;;;;;;5031961;28;20238;-69
2021/11/14 03:14:34;;;;;;;18.47;14.33;;;8.20;99.90;;;;;;5034885;28;20553;-71
2021/11/14 03:17:00;;;;;;;23.80;17.88;;;8.10;99.90;;;;;;5034670;28;20249;-72
2021/11/14 03:19:26;;;;;;;20.42;18.15;;;8.10;99.90;;;;;;5033866;28;20837;-71
2021/11/14 03:21:51;;;;;;;23.37;18.10;;;8.30;99.90;;;;;;5034212;28;20199;-70
2021/11/14 03:24:17;;;;;;;21.10;16.27;;;8.20;99.90;;;;;;5033551;28;20528;-72
2021/11/14 03:26:44;;;;;;;18.67;15.77;;;8.30;99.90;;;;;;5034505;28;20195;-70
2021/11/14 03:29:09;;;;;;;19.55;15.30;;;8.30;99.90;;;;;;5034187;28;20709;-72
2021/11/14 03:31:35;;;;;;;18.43;15.47;;;8.10;99.90;;;;;;5033954;28;20187;-71
2021/11/14 03:34:02;;;;;;;16.63;14.90;;;8.20;99.90;;;;;;5033372;28;20192;-72
2021/11/14 03:36:28;;;;;;;22.80;19.00;;;8.40;99.90;;;;;;5034510;28;20179;-72
2021/11/14 03:38:56;;;;;;;19.58;15.05;;;8.30;99.90;;;;;;5033449;28;20697;-71
2021/11/14 03:41:32;;;;;;;19.17;15.30;;;8.30;99.90;;;;;;5033049;28;20274;-71
2021/11/14 03:43:59;;;;;;;18.83;15.38;;;8.20;99.90;;;;;;5032623;28;20191;-72
2021/11/14 03:46:25;;;;;;;17.65;15.00;;;8.30;99.90;;;;;;5032975;28;20183;-72
2021/11/14 03:48:55;;;;;;;12.93;10.90;;;8.20;99.90;;;;;;5032753;28;20241;-72
2021/11/14 03:51:22;;;;;;;10.60;8.88;;;8.20;99.90;;;;;;5032014;28;20557;-71
2021/11/14 03:53:49;;;;;;;17.35;13.95;;;8.30;99.90;;;;;;5031623;28;20199;-71
2021/11/14 03:56:15;;;;;;;23.13;19.55;;;8.40;99.90;;;;;;5032083;28;20195;-73
2021/11/14 03:58:41;;;;;;;24.42;20.27;;;8.20;99.90;;;;;;5032984;28;20195;-72
2021/11/14 04:01:11;;;;;;;24.23;19.35;;;8.40;99.90;;;;;;5032299;28;20240;-71
2021/11/14 04:03:38;;;;;;;26.50;19.75;;;8.20;99.90;;;;;;5014978;28;20235;-72
2021/11/14 04:06:05;;;;;;;30.98;22.85;;;8.10;99.90;;;;;;5032014;28;20230;-70
2021/11/14 04:08:31;;;;;;;30.67;22.67;;;8.10;99.90;;;;;;5033110;28;20183;-71
2021/11/14 04:11:02;;;;;;;31.10;21.00;;;8.10;99.90;;;;;;5033424;28;20202;-72
2021/11/14 04:13:30;;;;;;;29.17;22.23;;;8.10;99.90;;;;;;5032250;28;20195;-71
2021/11/14 04:16:00;;;;;;;27.35;20.98;;;8.00;99.90;;;;;;5032785;28;20286;-73
2021/11/14 04:18:26;;;;;;;29.55;21.75;;;7.90;99.90;;;;;;5033359;28;20191;-71
2021/11/14 04:20:52;;;;;;;32.10;22.73;;;7.80;99.90;;;;;;5032922;28;20357;-71
2021/11/14 04:23:18;;;;;;;35.47;23.45;;;7.80;99.90;;;;;;5032762;28;20858;-72
2021/11/14 04:25:44;;;;;;;35.07;23.17;;;7.90;99.90;;;;;;5033147;28;20215;-71
2021/11/14 04:28:12;;;;;;;25.27;21.70;;;8.10;99.90;;;;;;5032938;28;20442;-71
2021/11/14 04:30:41;;;;;;;29.83;22.33;;;7.90;99.90;;;;;;5033493;28;20195;-71
2021/11/14 04:33:07;;;;;;;25.85;20.50;;;8.00;99.90;;;;;;5032972;28;20183;-73
2021/11/14 04:35:34;;;;;;;26.02;21.85;;;8.00;99.90;;;;;;5032314;28;20681;-72
2021/11/14 04:38:00;;;;;;;25.58;21.02;;;7.70;99.90;;;;;;5032825;28;20180;-70
2021/11/14 04:40:29;;;;;;;25.85;19.58;;;7.90;99.90;;;;;;5032587;28;20199;-72
2021/11/14 04:42:54;;;;;;;23.85;19.50;;;8.10;99.90;;;;;;5033388;28;20615;-71
2021/11/14 04:45:21;;;;;;;23.30;18.10;;;8.10;99.90;;;;;;5031535;28;20268;-73
2021/11/14 04:47:47;;;;;;;23.92;19.40;;;8.10;99.90;;;;;;5032609;28;20190;-73
2021/11/14 04:50:16;;;;;;;24.00;20.10;;;8.00;99.90;;;;;;5032760;28;20188;-70
2021/11/14 04:52:41;;;;;;;21.65;17.30;;;8.30;99.90;;;;;;5032691;28;20211;-70
2021/11/14 04:55:08;;;;;;;31.10;20.33;;;8.30;99.90;;;;;;5031501;28;20902;-70
2021/11/14 04:57:34;;;;;;;28.65;18.70;;;8.20;99.90;;;;;;5032487;28;20579;-70
2021/11/14 04:59:59;;;;;;;29.57;20.60;;;8.40;99.90;;;;;;5032553;28;20206;-71
2021/11/14 05:02:25;;;;;;;26.90;20.10;;;8.10;99.90;;;;;;5032936;28;20195;-70
2021/11/14 05:04:51;;;;;;;30.87;20.50;;;8.10;99.90;;;;;;5030850;28;20496;-71
2021/11/14 05:07:17;;;;;;;23.40;20.03;;;8.00;99.90;;;;;;5032309;28;20258;-72
2021/11/14 05:09:42;;;;;;;26.30;19.67;;;8.20;99.90;;;;;;5032207;28;20202;-71
2021/11/14 05:12:08;;;;;;;27.53;21.23;;;8.20;99.90;;;;;;5031619;28;20187;-70
2021/11/14 05:14:34;;;;;;;30.57;20.63;;;8.20;99.90;;;;;;5032445;28;20255;-72
2021/11/14 05:16:59;;;;;;;27.93;21.70;;;8.30;99.90;;;;;;5030997;28;20516;-71
2021/11/14 05:19:25;;;;;;;26.37;19.87;;;8.10;99.90;;;;;;5031787;28;20202;-70
2021/11/14 05:21:51;;;;;;;25.63;20.17;;;7.90;99.90;;;;;;5032167;28;20189;-71
2021/11/14 05:24:16;;;;;;;27.80;19.30;;;8.00;99.90;;;;;;5031466;28;20242;-71
2021/11/14 05:26:42;;;;;;;24.23;19.30;;;7.90;99.90;;;;;;5031664;28;20191;-70
2021/11/14 05:29:07;;;;;;;27.40;19.87;;;8.30;99.90;;;;;;5031935;28;20193;-72
2021/11/14 05:31:33;;;;;;;26.10;19.60;;;7.90;99.90;;;;;;5032182;28;20187;-71
2021/11/14 05:33:59;;;;;;;27.23;20.90;;;8.00;99.90;;;;;;5031045;28;20191;-73
2021/11/14 05:36:25;;;;;;;26.67;20.08;;;8.10;99.90;;;;;;5031120;28;20198;-70
2021/11/14 05:38:51;;;;;;;27.73;19.27;;;8.00;99.90;;;;;;5012259;28;20242;-72
2021/11/14 05:41:17;;;;;;;27.05;18.52;;;8.00;99.90;;;;;;5012302;28;21070;-72
2021/11/14 05:43:43;;;;;;;25.93;20.00;;;8.00;99.90;;;;;;5022589;28;20244;-70
2021/11/14 05:46:09;;;;;;;29.33;19.80;;;7.90;99.90;;;;;;5031233;28;20686;-69
2021/11/14 05:48:34;;;;;;;31.20;19.90;;;7.90;99.90;;;;;;5031073;28;20214;-70
2021/11/14 05:51:00;;;;;;;26.20;18.83;;;8.20;99.90;;;;;;5032046;28;20205;-70
2021/11/14 05:53:26;;;;;;;30.50;21.27;;;8.20;99.90;;;;;;5030859;28;20246;-70
2021/11/14 05:55:52;;;;;;;25.40;19.52;;;8.00;99.90;;;;;;5012308;28;20188;-70
2021/11/14 05:58:24;;;;;;;29.05;19.40;;;8.10;99.90;;;;;;5027619;28;20562;-70
2021/11/14 06:05:55;;;;;;;24.67;17.38;;;8.20;99.90;;;;;;5029988;28;20218;-70
2021/11/14 06:08:21;;;;;;;22.57;17.13;;;8.40;99.90;;;;;;5030510;28;20190;-71
2021/11/14 06:10:54;;;;;;;23.97;18.00;;;8.20;99.90;;;;;;5029973;28;20195;-70
2021/11/14 06:13:21;;;;;;;26.83;17.85;;;8.20;99.90;;;;;;5030327;28;20245;-70
2021/11/14 06:15:48;;;;;;;23.55;17.95;;;8.30;99.90;;;;;;5029639;28;20252;-72
2021/11/14 06:18:14;;;;;;;27.05;18.67;;;8.20;99.90;;;;;;5029807;28;20909;-72
2021/11/14 06:20:39;;;;;;;31.63;20.53;;;8.20;99.90;;;;;;5029178;28;20183;-73
2021/11/14 06:23:06;;;;;;;27.73;19.37;;;8.20;99.90;;;;;;5028781;28;20571;-73
2021/11/14 06:25:33;;;;;;;26.77;18.38;;;8.00;99.90;;;;;;5028977;28;20226;-73
2021/11/14 06:27:58;;;;;;;31.25;18.48;;;8.30;99.90;;;;;;5030497;28;20713;-73
2021/11/14 06:30:24;;;;;;;26.33;18.23;;;8.20;99.90;;;;;;5030852;28;20194;-73
2021/11/14 06:32:50;;;;;;;27.55;19.60;;;7.90;99.90;;;;;;5029799;28;20179;-72
2021/11/14 06:35:16;;;;;;;22.97;19.10;;;8.40;99.90;;;;;;5028860;28;20599;-72
2021/11/14 06:37:42;;;;;;;25.70;18.93;;;8.10;99.90;;;;;;5030126;28;20998;-72
2021/11/14 06:40:09;;;;;;;23.30;17.73;;;8.20;99.90;;;;;;5030373;28;20720;-71
2021/11/14 06:42:35;;;;;;;26.70;19.23;;;8.20;99.90;;;;;;5030567;28;20664;-72
2021/11/14 06:45:02;;;;;;;22.50;17.05;;;8.40;99.90;;;;;;5029112;28;20226;-74
2021/11/14 06:47:27;;;;;;;26.50;20.50;;;8.10;99.90;;;;;;5031068;28;20194;-71
2021/11/14 06:49:53;;;;;;;28.50;17.60;;;8.10;99.90;;;;;;5031762;28;20248;-72
2021/11/14 06:52:20;;;;;;;23.33;17.30;;;8.20;99.90;;;;;;5032169;28;20187;-73
2021/11/14 06:54:46;;;;;;;26.05;17.42;;;8.50;99.90;;;;;;5031389;28;20226;-73
2021/11/14 06:57:12;;;;;;;25.23;17.83;;;8.40;99.90;;;;;;5032208;28;20221;-72
2021/11/14 06:59:38;;;;;;;26.53;19.93;;;8.30;99.90;;;;;;5034076;28;20187;-72
2021/11/14 07:02:07;;;;;;;24.10;18.55;;;8.40;99.90;;;;;;5033654;28;20196;-72
2021/11/14 07:04:34;;;;;;;23.08;18.27;;;8.10;99.90;;;;;;5033063;28;20280;-72
2021/11/14 07:07:00;;;;;;;21.25;17.38;;;8.20;99.90;;;;;;5032652;28;20206;-73
2021/11/14 07:09:25;;;;;;;23.90;17.67;;;8.30;99.90;;;;;;5033326;28;20195;-72
2021/11/14 07:11:53;;;;;;;25.30;18.23;;;8.80;99.90;;;;;;5033385;28;20281;-73
2021/11/14 07:14:20;;;;;;;20.75;15.13;;;8.60;99.90;;;;;;5033832;28;20187;-73
2021/11/14 07:16:46;;;;;;;19.50;16.30;;;8.80;99.90;;;;;;5032699;28;20195;-72
2021/11/14 07:19:12;;;;;;;23.17;16.17;;;8.70;99.90;;;;;;5033455;28;20191;-73
2021/11/14 07:21:37;;;;;;;18.60;13.60;;;9.00;99.90;;;;;;5033501;28;20716;-72
2021/11/14 07:24:03;;;;;;;19.00;14.70;;;9.20;99.90;;;;;;5032700;28;20669;-73
2021/11/14 07:26:28;;;;;;;19.70;15.40;;;9.50;99.90;;;;;;5033609;28;20249;-71
2021/11/14 07:28:54;;;;;;;15.30;13.30;;;9.10;99.90;;;;;;5037732;28;20179;-72
2021/11/14 07:31:20;;;;;;;15.83;12.90;;;9.50;99.90;;;;;;5032855;28;20650;-75
2021/11/14 07:33:45;;;;;;;14.60;11.90;;;9.80;99.90;;;;;;5034800;28;20570;-72
2021/11/14 07:36:11;;;;;;;16.47;14.10;;;9.60;99.90;;;;;;5032923;28;20309;-76
2021/11/14 07:38:36;;;;;;;19.23;15.23;;;9.60;99.90;;;;;;5033827;28;20265;-75
2021/11/14 07:41:02;;;;;;;23.97;16.60;;;9.80;99.90;;;;;;5033285;28;20225;-73
2021/11/14 07:43:28;;;;;;;22.07;17.00;;;9.70;99.90;;;;;;5033646;28;20215;-73
2021/11/14 07:45:54;;;;;;;25.27;18.00;;;9.90;99.90;;;;;;5032120;28;20274;-73
2021/11/14 07:48:19;;;;;;;20.50;16.45;;;10.10;99.90;;;;;;5031881;28;20465;-75
2021/11/14 07:50:46;;;;;;;23.40;17.87;;;10.30;99.90;;;;;;5033385;28;20669;-72
2021/11/14 07:53:13;;;;;;;20.73;16.15;;;10.40;99.90;;;;;;5032404;28;20183;-72
2021/11/14 07:55:39;;;;;;;21.30;16.05;;;9.90;99.90;;;;;;5032222;28;20202;-74
2021/11/14 07:58:06;;;;;;;21.73;17.00;;;9.90;99.90;;;;;;5032047;28;20188;-72
2021/11/14 08:00:33;;;;;;;26.45;18.35;;;10.10;99.90;;;;;;5032585;28;20195;-74
2021/11/14 08:02:59;;;;;;;23.65;17.40;;;9.60;99.90;;;;;;5031893;28;20195;-72
2021/11/14 08:05:28;;;;;;;26.00;19.03;;;9.60;99.90;;;;;;5031364;28;20238;-75
2021/11/14 08:07:53;;;;;;;27.02;17.75;;;9.70;99.90;;;;;;5028967;28;20952;-74
2021/11/14 08:10:20;;;;;;;24.87;17.37;;;9.50;99.90;;;;;;5032591;28;20198;-75
2021/11/14 08:12:46;;;;;;;24.42;18.20;;;9.60;99.90;;;;;;5032324;28;20183;-76
2021/11/14 08:15:11;;;;;;;22.57;16.73;;;9.40;99.90;;;;;;5032758;28;20194;-75
2021/11/14 08:17:37;;;;;;;22.20;18.87;;;9.20;99.90;;;;;;5032234;28;20202;-75
2021/11/14 08:20:04;;;;;;;24.27;18.90;;;9.50;99.90;;;;;;5032573;28;20190;-74
2021/11/14 08:22:30;;;;;;;22.23;17.52;;;9.40;99.90;;;;;;5032042;28;20195;-73
2021/11/14 08:24:58;;;;;;;28.77;19.45;;;9.70;99.90;;;;;;5031655;28;20720;-73
2021/11/14 08:27:24;;;;;;;28.63;20.13;;;9.70;99.90;;;;;;5030706;28;20194;-73
2021/11/14 08:29:50;;;;;;;22.77;19.45;;;9.70;99.90;;;;;;5030465;28;20183;-74
2021/11/14 08:32:17;;;;;;;26.90;20.37;;;9.90;99.90;;;;;;5031152;28;20286;-73
2021/11/14 08:34:43;;;;;;;26.48;18.80;;;10.10;99.90;;;;;;5031876;28;20464;-73
2021/11/14 08:37:09;;;;;;;24.25;18.10;;;9.90;99.90;;;;;;5032237;28;20218;-74
2021/11/14 08:39:35;;;;;;;24.37;19.10;;;9.90;99.90;;;;;;5031816;28;20840;-72
2021/11/14 08:42:01;;;;;;;26.90;18.47;;;9.70;99.90;;;;;;5031807;28;20188;-73
2021/11/14 08:44:28;;;;;;;25.17;15.90;;;9.90;99.90;;;;;;5031781;28;20765;-73
2021/11/14 08:46:53;;;;;;;25.02;18.27;;;9.80;99.90;;;;;;5032150;28;20190;-73
2021/11/14 08:49:19;;;;;;;24.13;16.47;;;10.30;99.90;;;;;;5031954;28;20186;-72
2021/11/14 08:51:45;;;;;;;23.50;17.87;;;9.90;99.90;;;;;;5031670;28;20526;-71
2021/11/14 08:54:11;;;;;;;22.70;16.50;;;10.50;99.90;;;;;;5031529;28;20183;-71
2021/11/14 08:56:38;;;;;;;19.70;16.80;;;10.50;99.90;;;;;;5031277;28;20198;-73
2021/11/14 08:59:05;;;;;;;22.63;17.25;;;10.40;99.90;;;;;;5031666;28;20278;-72
2021/11/14 09:01:34;;;;;;;19.50;14.90;;;10.50;99.90;;;;;;5031769;28;20336;-73
2021/11/14 09:04:00;;;;;;;20.08;15.45;;;10.60;99.90;;;;;;5030616;28;20231;-71
2021/11/14 09:06:25;;;;;;;22.10;16.60;;;10.70;99.90;;;;;;5031832;28;20191;-72
2021/11/14 09:08:51;;;;;;;23.93;16.23;;;10.80;99.90;;;;;;5030779;28;20194;-72
2021/11/14 09:11:17;;;;;;;17.83;15.50;;;10.50;99.90;;;;;;5031362;28;20260;-73
2021/11/14 09:13:43;;;;;;;19.77;16.93;;;10.40;99.90;;;;;;5030389;28;20195;-72
2021/11/14 09:16:09;;;;;;;20.88;16.05;;;10.30;99.90;;;;;;5029033;28;20450;-73
2021/11/14 09:18:35;;;;;;;21.80;16.15;;;10.30;99.90;;;;;;5021237;28;20278;-72
2021/11/14 09:21:01;;;;;;;20.63;16.27;;;10.10;99.90;;;;;;5028779;28;20706;-72
2021/11/14 09:23:29;;;;;;;19.60;15.33;;;10.10;99.90;;;;;;5028415;28;20191;-72
2021/11/14 09:25:56;;;;;;;21.42;16.55;;;10.30;99.90;;;;;;5027680;28;20477;-72
2021/11/14 09:28:22;;;;;;;22.13;15.52;;;10.20;99.90;;;;;;5028694;28;20187;-71
2021/11/14 09:30:50;;;;;;;22.23;16.47;;;10.10;99.90;;;;;;5028948;28;20290;-71
2021/11/14 09:33:24;;;;;;;19.17;15.45;;;9.90;99.90;;;;;;5029695;28;20430;-70
2021/11/14 09:35:50;;;;;;;19.65;16.15;;;10.10;99.90;;;;;;5021370;28;20207;-72
2021/11/14 09:38:16;;;;;;;19.98;15.48;;;10.10;99.90;;;;;;5029373;28;20273;-71
2021/11/14 09:40:42;;;;;;;19.27;15.73;;;9.90;99.90;;;;;;5028915;28;20641;-71
2021/11/14 09:43:09;;;;;;;20.23;16.00;;;9.80;99.90;;;;;;5028909;28;20442;-72
2021/11/14 09:45:37;;;;;;;20.50;15.90;;;10.00;99.90;;;;;;5027988;28;20301;-71
2021/11/14 09:48:03;;;;;;;19.65;15.43;;;10.10;99.90;;;;;;5029033;28;20190;-70
2021/11/14 09:50:30;;;;;;;21.10;15.70;;;9.90;99.90;;;;;;5028769;28;20178;-73
2021/11/14 09:52:56;;;;;;;21.13;15.82;;;10.00;99.90;;;;;;5029988;28;20199;-71
2021/11/14 09:55:24;;;;;;;18.80;15.52;;;10.00;99.90;;;;;;5027373;28;20191;-72
2021/11/14 09:57:51;;;;;;;20.92;16.80;;;10.10;99.90;;;;;;5027345;28;20187;-71
2021/11/14 10:00:19;;;;;;;20.17;15.98;;;10.30;99.90;;;;;;5027824;28;20206;-70
2021/11/14 10:02:46;;;;;;;19.70;16.83;;;10.00;99.90;;;;;;5029020;28;20277;-70
2021/11/14 10:05:14;;;;;;;20.52;16.30;;;10.10;99.90;;;;;;5029188;28;20318;-72
2021/11/14 10:07:41;;;;;;;20.80;16.25;;;10.30;99.90;;;;;;5028490;28;20209;-70
2021/11/14 10:10:11;;;;;;;22.27;17.02;;;10.60;99.90;;;;;;5028395;28;20186;-72
2021/11/14 10:12:38;;;;;;;17.40;13.73;;;10.40;99.90;;;;;;5028424;28;20546;-69
2021/11/14 10:15:13;;;;;;;20.52;16.35;;;10.60;99.90;;;;;;5029367;28;20179;-71
2021/11/14 10:17:51;;;;;;;18.92;15.35;;;11.00;99.90;;;;;;5028531;28;20203;-70
2021/11/14 10:20:32;;;;;;;21.15;14.80;;;10.70;99.90;;;;;;5029574;28;20197;-71
2021/11/14 10:23:03;;;;;;;21.98;15.65;;;11.00;99.90;;;;;;5024711;28;20195;-70
2021/11/14 10:25:31;;;;;;;21.55;16.70;;;11.30;99.90;;;;;;5032496;28;20639;-70
2021/11/14 10:28:01;;;;;;;19.05;14.88;;;11.40;99.90;;;;;;5032847;28;20847;-71
2021/11/14 10:30:28;;;;;;;20.58;15.18;;;11.50;99.90;;;;;;5032016;28;20183;-70
2021/11/14 10:32:57;;;;;;;19.90;15.45;;;11.60;99.90;;;;;;5031723;28;20541;-70
2021/11/14 10:35:24;;;;;;;19.85;14.75;;;11.60;99.90;;;;;;5032693;28;20215;-70
2021/11/14 10:37:50;;;;;;;18.27;15.20;;;11.60;99.90;;;;;;5032928;28;20191;-71
2021/11/14 10:40:25;;;;;;;20.27;14.10;;;11.40;99.90;;;;;;5032358;28;20191;-70
2021/11/14 10:42:54;;;;;;;19.98;14.52;;;11.30;99.90;;;;;;5032503;28;20198;-70
2021/11/14 10:45:20;;;;;;;22.40;14.50;;;11.30;99.90;;;;;;5032738;28;20582;-70
2021/11/14 10:48:04;;;;;;;18.77;14.45;;;11.20;99.90;;;;;;5033169;28;20666;-70
2021/11/14 10:50:35;;;;;;;20.92;14.23;;;11.40;99.90;;;;;;5026039;28;20533;-70
2021/11/14 10:53:03;;;;;;;24.80;15.98;;;11.30;99.90;;;;;;5032431;28;20202;-70
2021/11/14 10:55:33;;;;;;;20.30;15.13;;;11.40;99.90;;;;;;5030092;28;20561;-70
2021/11/14 10:57:59;;;;;;;22.55;16.00;;;11.40;99.90;;;;;;5031815;28;20206;-70
2021/11/14 11:00:27;;;;;;;21.10;14.80;;;10.80;99.90;;;;;;5032237;28;20195;-70
2021/11/14 11:02:53;;;;;;;22.88;14.52;;;11.00;99.90;;;;;;5031885;28;20613;-71
2021/11/14 11:05:22;;;;;;;25.73;15.30;;;11.10;99.90;;;;;;5031371;28;20327;-70
2021/11/14 11:07:59;;;;;;;21.75;15.38;;;10.80;99.90;;;;;;5030487;28;20198;-72
2021/11/14 11:10:44;;;;;;;22.95;14.95;;;10.90;99.90;;;;;;5032432;28;20203;-72
2021/11/14 11:13:43;;;;;;;23.48;15.43;;;10.70;99.90;;;;;;5032537;28;20195;-71
2021/11/14 11:16:18;;;;;;;22.80;15.88;;;10.80;99.90;;;;;;5030313;28;20202;-73
2021/11/14 11:18:53;;;;;;;24.02;15.70;;;10.70;99.90;;;;;;5032307;28;20195;-72
2021/11/14 11:21:20;;;;;;;18.63;14.20;;;10.90;99.90;;;;;;5032979;28;20195;-71
2021/11/14 11:23:46;;;;;;;21.15;14.95;;;10.40;99.90;;;;;;5031928;28;20638;-70
2021/11/14 11:26:14;;;;;;;21.77;15.88;;;10.50;99.90;;;;;;5031554;28;20242;-69
2021/11/14 11:28:43;;;;;;;24.58;14.85;;;10.60;99.90;;;;;;5030006;28;20184;-69
2021/11/14 11:31:12;;;;;;;18.33;13.55;;;10.40;99.90;;;;;;5032109;28;20187;-69
2021/11/14 11:33:41;;;;;;;20.38;14.38;;;10.90;99.90;;;;;;5031441;28;20184;-68
2021/11/14 11:36:09;;;;;;;17.65;13.15;;;10.50;99.90;;;;;;5032260;28;20195;-69
2021/11/14 11:38:36;;;;;;;19.90;13.82;;;10.70;99.90;;;;;;5031359;28;20634;-69
2021/11/14 11:41:04;;;;;;;18.35;13.73;;;10.60;99.90;;;;;;5031628;28;20269;-70
2021/11/14 11:43:31;;;;;;;16.15;12.95;;;10.80;99.90;;;;;;5032026;28;20191;-72
2021/11/14 11:46:03;;;;;;;19.52;13.07;;;11.20;99.90;;;;;;5031250;28;20235;-69
2021/11/14 11:48:56;;;;;;;19.20;12.98;;;11.40;99.90;;;;;;5032101;28;20184;-69
2021/11/14 11:51:32;;;;;;;20.27;12.80;;;11.50;99.90;;;;;;5030757;28;20195;-70
2021/11/14 11:54:12;;;;;;;17.70;13.00;;;11.40;99.90;;;;;;5032057;28;20278;-72
2021/11/14 11:56:40;;;;;;;19.25;13.23;;;11.40;99.90;;;;;;5030675;28;20191;-68
2021/11/14 11:59:19;;;;;;;19.23;14.32;;;11.40;99.90;;;;;;5030756;28;20187;-70
2021/11/14 12:01:50;;;;;;;20.65;14.02;;;11.80;99.90;;;;;;5025354;28;20195;-70
2021/11/14 12:04:29;;;;;;;16.52;11.65;;;11.90;99.90;;;;;;5031372;28;20230;-69
2021/11/14 12:06:58;;;;;;;16.33;13.27;;;12.20;99.90;;;;;;5031942;28;20651;-70
2021/11/14 12:09:26;;;;;;;13.75;11.75;;;12.20;99.90;;;;;;5030687;28;20685;-70
2021/11/14 12:11:52;;;;;;;16.05;12.32;;;12.30;99.90;;;;;;5032225;28;20280;-70
2021/11/14 12:14:36;;;;;;;16.17;12.07;;;12.30;99.90;;;;;;5030898;28;20266;-70
2021/11/14 12:17:05;;;;;;;16.30;11.88;;;12.20;99.90;;;;;;5029825;28;20720;-70
2021/11/14 12:19:36;;;;;;;16.15;11.60;;;12.60;99.90;;;;;;5031264;28;20241;-71
2021/11/14 12:22:08;;;;;;;16.02;12.30;;;12.50;99.90;;;;;;5031565;28;20204;-70
2021/11/14 12:24:50;;;;;;;14.13;11.57;;;12.70;99.90;;;;;;5028352;28;20222;-69
2021/11/14 12:27:34;;;;;;;15.82;12.02;;;12.40;99.90;;;;;;5030462;28;20191;-70
2021/11/14 12:30:08;;;;;;;15.43;11.70;;;12.40;99.90;;;;;;5028541;28;20197;-69
2021/11/14 12:32:42;;;;;;;16.38;12.57;;;12.40;99.90;;;;;;5031055;28;20187;-70
2021/11/14 12:35:17;;;;;;;13.73;11.20;;;12.70;99.90;;;;;;5031233;28;20220;-72
2021/11/14 12:37:51;;;;;;;16.05;12.13;;;12.60;99.90;;;;;;5023799;28;20568;-71
2021/11/14 12:40:22;;;;;;;15.07;11.35;;;12.50;99.90;;;;;;5030557;28;20721;-69
2021/11/14 12:42:50;;;;;;;16.83;12.55;;;12.20;99.90;;;;;;5024475;28;20184;-69